createdAt,value
2023-01-28T00:00:45.254Z,21.4
2023-01-28T00:01:53.014Z,23.2
2023-01-28T00:03:00.995Z,23.1
2023-01-28T00:04:08.234Z,23.2
2023-01-28T00:05:15.889Z,22.3
2023-01-28T00:06:22.699Z,23.8
2023-01-28T00:07:30.123Z,24.2
2023-01-28T00:08:37.730Z,24.5
2023-01-28T00:09:44.878Z,24.9
2023-01-28T00:10:53.210Z,25.4
2023-01-28T00:12:02.972Z,24.7
2023-01-28T00:13:09.976Z,25.4
2023-01-28T00:14:19.716Z,26.6
2023-01-28T00:15:28.187Z,27.1
2023-01-28T00:16:35.932Z,27.7
2023-01-28T00:17:43.177Z,29.9
2023-01-28T00:18:50.253Z,27
2023-01-28T00:19:57.538Z,27.1
2023-01-28T00:21:06.732Z,27.1
2023-01-28T00:22:14.657Z,26.5
2023-01-28T00:23:22.621Z,26.5
2023-01-28T00:24:33.599Z,26.7
2023-01-28T00:25:41.026Z,25.2
2023-01-28T00:26:48.305Z,23.8
2023-01-28T00:27:55.471Z,25
2023-01-28T00:29:03.701Z,24.1
2023-01-28T00:30:10.705Z,23.3
2023-01-28T00:31:18.144Z,23.9
2023-01-28T00:32:25.535Z,24.6
2023-01-28T00:33:32.609Z,25.5
2023-01-28T00:34:39.729Z,24.6
2023-01-28T00:35:46.909Z,26.5
2023-01-28T00:37:01.699Z,25.3
2023-01-28T00:38:09.006Z,25.4
2023-01-28T00:39:16.373Z,26.7
2023-01-28T00:40:23.883Z,26.8
2023-01-28T00:41:33.069Z,26.6
2023-01-28T00:42:40.412Z,25.8
2023-01-28T00:43:47.602Z,25.9
2023-01-28T00:44:55.193Z,26.1
2023-01-28T00:46:02.302Z,25.9
2023-01-28T00:47:10.516Z,25.1
2023-01-28T00:48:17.748Z,24.9
2023-01-28T00:49:25.925Z,24.4
2023-01-28T00:50:33.469Z,23.8
2023-01-28T00:51:42.453Z,22.7
2023-01-28T00:52:50.897Z,22.8
2023-01-28T00:53:58.249Z,23.5
2023-01-28T00:55:07.402Z,25.2
2023-01-28T00:56:14.665Z,23.5
2023-01-28T00:57:21.802Z,25.2
2023-01-28T00:58:29.376Z,23.2
2023-01-28T00:59:37.329Z,22.6
2023-01-28T01:00:44.816Z,21.7
2023-01-28T01:01:51.884Z,20.8
2023-01-28T01:02:59.206Z,21.3
2023-01-28T01:04:06.448Z,21.2
2023-01-28T01:05:13.781Z,22
2023-01-28T01:06:20.642Z,21.6
2023-01-28T01:07:29.157Z,23.4
2023-01-28T01:08:36.738Z,23.3
2023-01-28T01:09:44.226Z,22
2023-01-28T01:10:51.217Z,22
2023-01-28T01:12:00.206Z,23.3
2023-01-28T01:13:07.738Z,23
2023-01-28T01:14:16.797Z,22.4
2023-01-28T01:15:23.753Z,22.1
2023-01-28T01:16:31.594Z,22.2
2023-01-28T01:17:39.974Z,23
2023-01-28T01:18:47.248Z,21.4
2023-01-28T01:19:54.481Z,21.8
2023-01-28T01:21:01.637Z,21.6
2023-01-28T01:22:09.800Z,20.5
2023-01-28T01:23:17.136Z,22
2023-01-28T01:24:25.388Z,21.9
2023-01-28T01:25:34.061Z,20.7
2023-01-28T01:26:42.036Z,20
2023-01-28T01:27:51.834Z,20
2023-01-28T01:28:59.095Z,20
2023-01-28T01:30:05.985Z,21.5
2023-01-28T01:31:13.143Z,19.9
2023-01-28T01:32:21.038Z,20.5
2023-01-28T01:33:28.824Z,21
2023-01-28T01:34:36.441Z,20.8
2023-01-28T01:35:44.458Z,21
2023-01-28T01:36:51.541Z,20
2023-01-28T01:38:00.003Z,20.5
2023-01-28T01:39:07.094Z,18.5
2023-01-28T01:40:17.177Z,19
2023-01-28T01:41:25.062Z,19.9
2023-01-28T01:42:33.141Z,20.2
2023-01-28T01:43:41.032Z,21.1
2023-01-28T01:44:51.329Z,19.2
2023-01-28T01:46:09.848Z,20
2023-01-28T01:47:16.677Z,18.6
2023-01-28T01:48:24.025Z,19.3
2023-01-28T01:49:34.028Z,18.8
2023-01-28T01:50:41.184Z,18.9
2023-01-28T01:51:53.940Z,18.7
2023-01-28T01:53:01.125Z,17.9
2023-01-28T01:54:08.259Z,17.7
2023-01-28T01:55:16.144Z,18.1
2023-01-28T01:56:23.086Z,17
2023-01-28T01:57:30.453Z,18.5
2023-01-28T01:58:38.668Z,18.6
2023-01-28T01:59:46.580Z,18.2
2023-01-28T02:00:53.464Z,20.2
2023-01-28T02:02:00.762Z,19.4
2023-01-28T02:03:08.791Z,19
2023-01-28T02:04:16.189Z,19.8
2023-01-28T02:05:24.411Z,18.9
2023-01-28T02:06:31.804Z,18.8
2023-01-28T02:07:39.231Z,17.6
2023-01-28T02:08:46.707Z,18.2
2023-01-28T02:09:53.995Z,17.1
2023-01-28T02:11:01.097Z,17.4
2023-01-28T02:12:08.291Z,17
2023-01-28T02:13:15.358Z,18.1
2023-01-28T02:14:30.797Z,17.2
2023-01-28T02:15:30.354Z,17.4
2023-01-28T02:16:37.502Z,17.5
2023-01-28T02:17:45.400Z,16.8
2023-01-28T02:18:52.739Z,15.9
2023-01-28T02:20:00.779Z,16.2
2023-01-28T02:21:12.164Z,17.7
2023-01-28T02:22:25.183Z,16.8
2023-01-28T02:23:37.428Z,17.5
2023-01-28T02:24:51.829Z,16.8
2023-01-28T02:26:06.991Z,17.2
2023-01-28T02:27:24.615Z,16.3
2023-01-28T02:28:35.771Z,17.8
2023-01-28T02:29:49.299Z,17.9
2023-01-28T02:31:07.819Z,17
2023-01-28T02:32:14.904Z,18.2
2023-01-28T02:33:27.272Z,17.4
2023-01-28T02:34:38.195Z,18.9
2023-01-28T02:35:51.663Z,16.7
2023-01-28T02:36:58.924Z,17.1
2023-01-28T02:38:11.810Z,16.9
2023-01-28T02:39:22.110Z,17.2
2023-01-28T02:40:34.293Z,16.1
2023-01-28T02:41:41.477Z,16.3
2023-01-28T02:42:54.070Z,17.3
2023-01-28T02:44:01.323Z,17.2
2023-01-28T02:45:08.466Z,18.1
2023-01-28T02:46:15.720Z,17.3
2023-01-28T02:47:30.791Z,17
2023-01-28T02:48:43.407Z,16.2
2023-01-28T02:49:51.250Z,16.5
2023-01-28T02:51:00.187Z,17.3
2023-01-28T02:52:12.713Z,16.9
2023-01-28T02:53:30.540Z,17.2
2023-01-28T02:54:47.200Z,17
2023-01-28T02:55:59.644Z,17.9
2023-01-28T02:57:12.093Z,17.6
2023-01-28T02:58:27.308Z,17.3
2023-01-28T02:59:43.036Z,16.5
2023-01-28T03:00:55.427Z,17.4
2023-01-28T03:02:12.759Z,17.1
2023-01-28T03:03:26.523Z,17.2
2023-01-28T03:04:43.813Z,16.3
2023-01-28T03:05:51.792Z,16.8
2023-01-28T03:07:04.970Z,16.8
2023-01-28T03:08:12.223Z,16.3
2023-01-28T03:09:24.386Z,17
2023-01-28T03:10:32.761Z,16.7
2023-01-28T03:11:39.936Z,16.3
2023-01-28T03:12:58.235Z,16.5
2023-01-28T03:14:11.300Z,15.6
2023-01-28T03:15:23.525Z,16.5
2023-01-28T03:16:35.716Z,17.5
2023-01-28T03:17:48.148Z,15.8
2023-01-28T03:19:09.342Z,16.3
2023-01-28T03:20:21.436Z,15.5
2023-01-28T03:21:38.862Z,14.7
2023-01-28T03:22:51.395Z,15.4
2023-01-28T03:24:04.024Z,15.8
2023-01-28T03:25:16.676Z,15.3
2023-01-28T03:26:29.040Z,15.7
2023-01-28T03:27:42.309Z,15.5
2023-01-28T03:28:54.625Z,15.5
2023-01-28T03:30:07.059Z,15.7
2023-01-28T03:31:27.856Z,16.8
2023-01-28T03:32:40.792Z,15.9
2023-01-28T03:33:54.064Z,15
2023-01-28T03:35:07.240Z,16.4
2023-01-28T03:36:19.815Z,15.8
2023-01-28T03:37:33.180Z,16.2
2023-01-28T03:38:40.631Z,16.3
2023-01-28T03:39:47.725Z,16.8
2023-01-28T03:40:56.413Z,17.6
2023-01-28T03:42:06.493Z,16.2
2023-01-28T03:43:15.303Z,15.8
2023-01-28T03:44:22.212Z,15.9
2023-01-28T03:45:35.472Z,14.8
2023-01-28T03:46:42.830Z,15.7
2023-01-28T03:47:49.754Z,15.1
2023-01-28T03:48:58.281Z,14.7
2023-01-28T03:50:06.124Z,15.2
2023-01-28T03:51:14.494Z,14.6
2023-01-28T03:52:22.530Z,14.5
2023-01-28T03:53:32.704Z,14.2
2023-01-28T03:54:40.919Z,14.6
2023-01-28T03:55:49.168Z,15.7
2023-01-28T03:56:56.447Z,15.6
2023-01-28T03:58:04.572Z,14.7
2023-01-28T03:59:11.856Z,15.3
2023-01-28T04:00:19.877Z,15.3
2023-01-28T04:01:27.165Z,15.5
2023-01-28T04:02:34.994Z,15.6
2023-01-28T04:03:42.642Z,15.9
2023-01-28T04:04:50.554Z,15.5
2023-01-28T04:05:58.003Z,15.1
2023-01-28T04:07:06.215Z,15.3
2023-01-28T04:08:13.287Z,15.3
2023-01-28T04:09:21.212Z,16.5
2023-01-28T04:10:29.116Z,15.6
2023-01-28T04:11:36.610Z,15.2
2023-01-28T04:12:44.751Z,14.8
2023-01-28T04:13:52.459Z,14.8
2023-01-28T04:15:00.971Z,14.4
2023-01-28T04:16:09.431Z,13.6
2023-01-28T04:17:16.571Z,14.7
2023-01-28T04:18:24.861Z,15.6
2023-01-28T04:19:32.059Z,15.8
2023-01-28T04:20:41.468Z,15.8
2023-01-28T04:21:48.738Z,16.2
2023-01-28T04:22:58.271Z,15.4
2023-01-28T04:24:05.511Z,14.2
2023-01-28T04:25:13.121Z,15.6
2023-01-28T04:26:19.626Z,16.7
2023-01-28T04:27:26.861Z,16.7
2023-01-28T04:28:34.759Z,16.7
2023-01-28T04:29:42.356Z,17.8
2023-01-28T04:30:49.871Z,17
2023-01-28T04:31:57.235Z,16.2
2023-01-28T04:33:04.547Z,15.4
2023-01-28T04:34:11.555Z,15.9
2023-01-28T04:35:19.572Z,17.2
2023-01-28T04:36:26.832Z,15.2
2023-01-28T04:37:34.739Z,16.3
2023-01-28T04:38:43.541Z,16
2023-01-28T04:39:51.744Z,15.7
2023-01-28T04:40:59.488Z,17.4
2023-01-28T04:42:06.550Z,17.5
2023-01-28T04:43:14.507Z,16.2
2023-01-28T04:44:23.611Z,15.6
2023-01-28T04:45:30.415Z,15.9
2023-01-28T04:46:39.085Z,16.1
2023-01-28T04:47:47.039Z,15.9
2023-01-28T04:48:54.633Z,14.8
2023-01-28T04:50:04.493Z,14.8
2023-01-28T04:51:14.185Z,14.9
2023-01-28T04:52:22.196Z,15.8
2023-01-28T04:53:30.719Z,15.8
2023-01-28T04:54:39.768Z,15.3
2023-01-28T04:55:46.851Z,13.1
2023-01-28T04:56:54.031Z,14.8
2023-01-28T04:58:02.493Z,15.7
2023-01-28T04:59:09.831Z,17.8
2023-01-28T05:00:17.929Z,13.8
2023-01-28T05:01:24.941Z,13.9
2023-01-28T05:02:33.246Z,14
2023-01-28T05:03:41.148Z,13.9
2023-01-28T05:04:48.717Z,14
2023-01-28T05:05:56.488Z,14
2023-01-28T05:07:03.739Z,14
2023-01-28T05:08:12.189Z,12.8
2023-01-28T05:09:19.650Z,13.4
2023-01-28T05:10:26.607Z,13.3
2023-01-28T05:11:34.078Z,13.1
2023-01-28T05:12:42.340Z,12.8
2023-01-28T05:13:49.917Z,13
2023-01-28T05:14:57.447Z,13.5
2023-01-28T05:16:04.763Z,15.3
2023-01-28T05:17:12.121Z,13.8
2023-01-28T05:18:19.431Z,13.7
2023-01-28T05:19:26.727Z,15.3
2023-01-28T05:20:34.807Z,16.9
2023-01-28T05:21:42.512Z,16.3
2023-01-28T05:22:49.659Z,15.9
2023-01-28T05:23:57.737Z,18.1
2023-01-28T05:25:05.354Z,20.6
2023-01-28T05:26:13.159Z,18.8
2023-01-28T05:27:21.319Z,18.9
2023-01-28T05:28:28.387Z,18.4
2023-01-28T05:29:35.741Z,18.2
2023-01-28T05:30:43.207Z,17.6
2023-01-28T05:31:50.647Z,18.9
2023-01-28T05:32:59.999Z,19.6
2023-01-28T05:34:07.120Z,20
2023-01-28T05:35:15.840Z,19.9
2023-01-28T05:36:22.843Z,20.2
2023-01-28T05:37:30.115Z,20.1
2023-01-28T05:38:37.131Z,18.9
2023-01-28T05:39:44.258Z,18.9
2023-01-28T05:40:51.591Z,18.7
2023-01-28T05:41:59.156Z,19.2
2023-01-28T05:43:06.210Z,19.2
2023-01-28T05:44:13.251Z,18.9
2023-01-28T05:45:20.703Z,19.4
2023-01-28T05:46:28.487Z,20.1
2023-01-28T05:47:36.494Z,20.2
2023-01-28T05:48:43.797Z,20.5
2023-01-28T05:49:51.906Z,19.6
2023-01-28T05:50:59.916Z,17.8
2023-01-28T05:52:08.315Z,18.9
2023-01-28T05:53:16.278Z,18.5
2023-01-28T05:54:23.548Z,16.9
2023-01-28T05:55:31.879Z,16.9
2023-01-28T05:56:38.935Z,14.9
2023-01-28T05:57:46.812Z,14.9
2023-01-28T05:58:54.434Z,15.4
2023-01-28T06:00:02.351Z,15
2023-01-28T06:01:11.073Z,14.3
2023-01-28T06:02:19.560Z,14
2023-01-28T06:03:27.257Z,13.6
2023-01-28T06:04:34.267Z,13.9
2023-01-28T06:05:41.377Z,13.4
2023-01-28T06:06:49.383Z,12
2023-01-28T06:07:57.690Z,12.1
2023-01-28T06:09:04.812Z,12.1
2023-01-28T06:10:13.151Z,12.3
2023-01-28T06:11:20.016Z,12.2
2023-01-28T06:12:27.121Z,11.9
2023-01-28T06:13:34.267Z,11.2
2023-01-28T06:14:42.460Z,12.1
2023-01-28T06:15:50.694Z,11
2023-01-28T06:16:57.838Z,10
2023-01-28T06:18:06.053Z,11.2
2023-01-28T06:19:13.840Z,11
2023-01-28T06:20:23.615Z,10.7
2023-01-28T06:21:30.960Z,10.5
2023-01-28T06:22:38.392Z,11.6
2023-01-28T06:23:45.537Z,11.3
2023-01-28T06:24:52.656Z,11.9
2023-01-28T06:25:59.849Z,11.7
2023-01-28T06:27:08.627Z,12.7
2023-01-28T06:28:15.649Z,11.7
2023-01-28T06:29:22.925Z,11.9
2023-01-28T06:30:30.458Z,12.6
2023-01-28T06:31:37.422Z,13.1
2023-01-28T06:32:45.861Z,12.8
2023-01-28T06:33:53.409Z,12.6
2023-01-28T06:35:01.311Z,12.6
2023-01-28T06:36:08.433Z,12.7
2023-01-28T06:37:15.564Z,12.9
2023-01-28T06:38:22.672Z,12.4
2023-01-28T06:39:30.110Z,12.5
2023-01-28T06:40:37.654Z,13.4
2023-01-28T06:41:44.709Z,12.9
2023-01-28T06:42:52.905Z,11.8
2023-01-28T06:43:59.901Z,12
2023-01-28T06:45:07.606Z,11.7
2023-01-28T06:46:15.491Z,11.3
2023-01-28T06:47:22.692Z,12.4
2023-01-28T06:48:30.039Z,12.4
2023-01-28T06:49:37.103Z,11.4
2023-01-28T06:50:44.136Z,11.9
2023-01-28T06:51:51.381Z,11.9
2023-01-28T06:52:58.409Z,11.9
2023-01-28T06:54:07.145Z,12.2
2023-01-28T06:55:14.173Z,12.1
2023-01-28T06:56:21.238Z,11.8
2023-01-28T06:57:29.801Z,11.6
2023-01-28T06:58:37.089Z,12
2023-01-28T06:59:44.276Z,12.8
2023-01-28T07:00:51.575Z,11.6
2023-01-28T07:01:58.611Z,12.5
2023-01-28T07:03:05.939Z,12.1
2023-01-28T07:04:13.892Z,13.6
2023-01-28T07:05:22.578Z,12.3
2023-01-28T07:06:30.545Z,12.6
2023-01-28T07:07:40.148Z,12.8
2023-01-28T07:08:45.747Z,13.2
2023-01-28T07:09:53.200Z,13
2023-01-28T07:11:00.485Z,12.5
2023-01-28T07:12:07.828Z,13.8
2023-01-28T07:13:14.841Z,13.2
2023-01-28T07:14:22.083Z,12.9
2023-01-28T07:15:30.280Z,13.2
2023-01-28T07:16:37.729Z,13.9
2023-01-28T07:17:45.197Z,13.8
2023-01-28T07:18:52.274Z,13.5
2023-01-28T07:20:00.374Z,14.3
2023-01-28T07:21:08.240Z,14.3
2023-01-28T07:22:15.473Z,12.4
2023-01-28T07:23:22.658Z,13.6
2023-01-28T07:24:30.208Z,13.3
2023-01-28T07:25:37.776Z,13.9
2023-01-28T07:26:45.204Z,12.5
2023-01-28T07:27:53.556Z,13.5
2023-01-28T07:29:01.577Z,14.3
2023-01-28T07:30:09.729Z,14.7
2023-01-28T07:31:17.202Z,12.9
2023-01-28T07:32:24.300Z,14.3
2023-01-28T07:33:31.404Z,14.7
2023-01-28T07:34:39.490Z,15.4
2023-01-28T07:35:46.620Z,15.3
2023-01-28T07:36:54.900Z,15
2023-01-28T07:38:01.003Z,16.1
2023-01-28T07:39:09.061Z,15.6
2023-01-28T07:40:16.822Z,15.6
2023-01-28T07:41:24.312Z,15.6
2023-01-28T07:42:31.450Z,16
2023-01-28T07:43:39.391Z,15.7
2023-01-28T07:44:47.132Z,16.1
2023-01-28T07:45:55.885Z,16.6
2023-01-28T07:47:08.838Z,17.2
2023-01-28T07:48:16.064Z,17.5
2023-01-28T07:49:23.305Z,16.7
2023-01-28T07:50:30.731Z,17.3
2023-01-28T07:51:38.700Z,18.2
2023-01-28T07:52:45.740Z,17.8
2023-01-28T07:53:53.080Z,18.3
2023-01-28T07:55:01.552Z,19.3
2023-01-28T07:56:10.169Z,19.9
2023-01-28T07:57:17.264Z,19.1
2023-01-28T07:58:25.287Z,19.2
2023-01-28T07:59:32.775Z,19.4
2023-01-28T08:00:40.902Z,20.8
2023-01-28T08:01:48.957Z,19.8
2023-01-28T08:02:56.799Z,20
2023-01-28T08:04:04.776Z,18.8
2023-01-28T08:05:12.776Z,18.5
2023-01-28T08:06:20.715Z,16.6
2023-01-28T08:07:28.411Z,17.9
2023-01-28T08:08:36.526Z,19.3
2023-01-28T08:09:43.951Z,17.3
2023-01-28T08:10:51.983Z,18.3
2023-01-28T08:11:59.391Z,17.5
2023-01-28T08:13:06.827Z,18.2
2023-01-28T08:14:13.839Z,17.4
2023-01-28T08:15:21.850Z,17.2
2023-01-28T08:16:28.740Z,18.7
2023-01-28T08:17:35.936Z,19.8
2023-01-28T08:18:42.939Z,20.9
2023-01-28T08:19:51.083Z,21.7
2023-01-28T08:20:58.159Z,20.6
2023-01-28T08:22:06.109Z,19.1
2023-01-28T08:23:13.225Z,19.6
2023-01-28T08:24:23.107Z,19.9
2023-01-28T08:25:31.744Z,19
2023-01-28T08:26:38.962Z,17.8
2023-01-28T08:27:46.270Z,16
2023-01-28T08:28:53.167Z,18
2023-01-28T08:30:00.516Z,17.7
2023-01-28T08:31:08.264Z,15.9
2023-01-28T08:32:15.680Z,16.8
2023-01-28T08:33:22.779Z,18.5
2023-01-28T08:34:30.770Z,15.8
2023-01-28T08:35:38.386Z,16.5
2023-01-28T08:36:46.926Z,18.3
2023-01-28T08:37:55.526Z,18.2
2023-01-28T08:39:03.522Z,19.3
2023-01-28T08:40:10.625Z,18.6
2023-01-28T08:41:18.231Z,19.2
2023-01-28T08:42:26.584Z,18.5
2023-01-28T08:43:34.375Z,21.8
2023-01-28T08:44:41.947Z,16.2
2023-01-28T08:45:50.371Z,17.1
2023-01-28T08:46:57.842Z,17.8
2023-01-28T08:48:06.151Z,17.2
2023-01-28T08:49:15.315Z,16.9
2023-01-28T08:50:22.330Z,16.8
2023-01-28T08:51:29.426Z,15.5
2023-01-28T08:52:36.685Z,18.3
2023-01-28T08:53:44.671Z,20.8
2023-01-28T08:54:51.928Z,20.2
2023-01-28T08:55:59.032Z,18.9
2023-01-28T08:57:06.744Z,18.3
2023-01-28T08:58:15.041Z,16.6
2023-01-28T08:59:23.215Z,17.1
2023-01-28T09:00:31.543Z,17.3
2023-01-28T09:01:41.907Z,17.5
2023-01-28T09:02:49.397Z,16.2
2023-01-28T09:03:56.982Z,16.7
2023-01-28T09:05:04.349Z,18.1
2023-01-28T09:06:16.284Z,17.2
2023-01-28T09:07:26.604Z,18.6
2023-01-28T09:08:33.755Z,20.7
2023-01-28T09:09:42.086Z,21.1
2023-01-28T09:10:49.942Z,18.1
2023-01-28T09:12:01.128Z,17.7
2023-01-28T09:13:09.785Z,18.3
2023-01-28T09:14:17.437Z,16.7
2023-01-28T09:15:24.828Z,15.1
2023-01-28T09:16:32.903Z,14.8
2023-01-28T09:17:41.072Z,16.9
2023-01-28T09:18:49.085Z,17.1
2023-01-28T09:19:57.256Z,16.6
2023-01-28T09:21:05.409Z,16.3
2023-01-28T09:22:13.686Z,16
2023-01-28T09:23:21.637Z,17.2
2023-01-28T09:24:29.761Z,16
2023-01-28T09:25:37.251Z,16.3
2023-01-28T09:26:45.909Z,16.1
2023-01-28T09:27:54.392Z,16.3
2023-01-28T09:29:03.060Z,16.3
2023-01-28T09:30:10.142Z,17.7
2023-01-28T09:31:18.784Z,16.4
2023-01-28T09:32:25.880Z,16.9
2023-01-28T09:33:33.394Z,16.1
2023-01-28T09:34:40.672Z,15.6
2023-01-28T09:35:48.637Z,17.3
2023-01-28T09:36:56.813Z,15.5
2023-01-28T09:38:06.110Z,16.1
2023-01-28T09:39:13.324Z,17.4
2023-01-28T09:40:21.436Z,17.3
2023-01-28T09:41:33.832Z,16.1
2023-01-28T09:42:46.065Z,15.8
2023-01-28T09:44:02.181Z,18.1
2023-01-28T09:45:19.724Z,19
2023-01-28T09:46:32.071Z,18.9
2023-01-28T09:47:40.543Z,18.3
2023-01-28T09:48:48.847Z,16.8
2023-01-28T09:49:56.085Z,17.2
2023-01-28T09:51:03.396Z,17.5
2023-01-28T09:52:14.291Z,17.6
2023-01-28T09:53:21.924Z,17.6
2023-01-28T09:54:30.403Z,16.6
2023-01-28T09:55:45.653Z,16.8
2023-01-28T09:56:58.920Z,15.7
2023-01-28T09:58:11.219Z,15.2
2023-01-28T09:59:18.690Z,15.7
2023-01-28T10:00:25.765Z,15.6
2023-01-28T10:01:41.147Z,15.7
2023-01-28T10:02:58.769Z,14.5
2023-01-28T10:04:09.790Z,16
2023-01-28T10:05:24.917Z,14.6
2023-01-28T10:06:38.796Z,15
2023-01-28T10:07:49.744Z,15.4
2023-01-28T10:09:01.990Z,16.3
2023-01-28T10:10:17.389Z,14.9
2023-01-28T10:11:29.231Z,15
2023-01-28T10:12:44.016Z,14.9
2023-01-28T10:13:56.384Z,15.1
2023-01-28T10:15:07.509Z,15.6
2023-01-28T10:16:25.558Z,14.9
2023-01-28T10:17:38.080Z,15.1
2023-01-28T10:18:50.393Z,14.5
2023-01-28T10:20:00.515Z,14.7
2023-01-28T10:21:15.505Z,15.5
2023-01-28T10:22:32.170Z,15.6
2023-01-28T10:23:39.996Z,15.8
2023-01-28T10:24:58.553Z,14.4
2023-01-28T10:26:05.450Z,16.1
2023-01-28T10:27:18.557Z,16.7
2023-01-28T10:28:26.852Z,16.5
2023-01-28T10:29:34.375Z,16.3
2023-01-28T10:30:41.766Z,16.2
2023-01-28T10:31:49.371Z,16.5
2023-01-28T10:32:57.436Z,17.7
2023-01-28T10:34:07.607Z,16.8
2023-01-28T10:35:14.460Z,18.7
2023-01-28T10:36:22.157Z,19.9
2023-01-28T10:37:30.100Z,18.3
2023-01-28T10:38:38.159Z,19
2023-01-28T10:39:45.137Z,18.3
2023-01-28T10:40:53.664Z,19.1
2023-01-28T10:42:01.492Z,17.7
2023-01-28T10:43:13.709Z,16.7
2023-01-28T10:44:21.741Z,16.7
2023-01-28T10:45:33.997Z,17
2023-01-28T10:46:42.085Z,17.4
2023-01-28T10:47:53.055Z,16.9
2023-01-28T10:49:05.757Z,16.8
2023-01-28T10:50:13.684Z,16.6
2023-01-28T10:51:25.788Z,17.2
2023-01-28T10:52:34.997Z,15.8
2023-01-28T10:53:42.985Z,16
2023-01-28T10:54:50.326Z,16.8
2023-01-28T10:56:05.568Z,17.1
2023-01-28T10:57:19.208Z,16.1
2023-01-28T10:58:26.121Z,18
2023-01-28T10:59:34.223Z,17.2
2023-01-28T11:00:42.514Z,17.3
2023-01-28T11:01:49.592Z,17.3
2023-01-28T11:03:05.172Z,17.2
2023-01-28T11:04:13.472Z,17.8
2023-01-28T11:05:27.871Z,19
2023-01-28T11:06:34.885Z,19.4
2023-01-28T11:07:42.251Z,20.5
2023-01-28T11:08:50.193Z,20.4
2023-01-28T11:09:57.327Z,20.6
2023-01-28T11:11:04.391Z,21.2
2023-01-28T11:12:12.563Z,21.3
2023-01-28T11:13:27.655Z,20
2023-01-28T11:14:35.976Z,19
2023-01-28T11:15:43.291Z,19.2
2023-01-28T11:16:54.233Z,18.5
2023-01-28T11:18:02.647Z,15.2
2023-01-28T11:19:10.805Z,15.2
2023-01-28T11:20:20.629Z,16.2
2023-01-28T11:21:29.293Z,16
2023-01-28T11:22:37.184Z,15.7
2023-01-28T11:23:44.268Z,16.7
2023-01-28T11:24:54.538Z,15.4
2023-01-28T11:26:03.301Z,16.9
2023-01-28T11:27:13.412Z,15.7
2023-01-28T11:28:20.840Z,16.9
2023-01-28T11:29:27.798Z,16.5
2023-01-28T11:30:34.959Z,15.8
2023-01-28T11:31:43.302Z,16.5
2023-01-28T11:32:50.980Z,17.8
2023-01-28T11:34:00.106Z,17.1
2023-01-28T11:35:07.128Z,16.7
2023-01-28T11:36:14.061Z,17.7
2023-01-28T11:37:21.595Z,17.3
2023-01-28T11:38:29.804Z,18.8
2023-01-28T11:39:37.919Z,19.1
2023-01-28T11:40:46.189Z,18.8
2023-01-28T11:41:56.472Z,21.2
2023-01-28T11:43:14.179Z,21.4
2023-01-28T11:44:22.250Z,23.5
2023-01-28T11:45:29.688Z,21.3
2023-01-28T11:46:46.875Z,20.4
2023-01-28T11:48:04.702Z,18.8
2023-01-28T11:49:17.922Z,22.8
2023-01-28T11:50:31.186Z,20.8
2023-01-28T11:51:45.735Z,19.3
2023-01-28T11:53:06.060Z,20.4
2023-01-28T11:54:19.807Z,21.2
2023-01-28T11:55:37.208Z,21.4
2023-01-28T11:56:57.143Z,18.8
2023-01-28T11:58:09.555Z,18
2023-01-28T11:59:28.045Z,16.5
2023-01-28T12:00:40.975Z,15.5
2023-01-28T12:01:55.683Z,15.5
2023-01-28T12:03:08.698Z,16.3
2023-01-28T12:04:27.890Z,17.1
2023-01-28T12:05:42.332Z,17.1
2023-01-28T12:06:58.681Z,17.7
2023-01-28T12:08:11.921Z,16
2023-01-28T12:09:18.953Z,17.1
2023-01-28T12:10:31.261Z,16.9
2023-01-28T12:11:42.299Z,18
2023-01-28T12:13:02.894Z,22.2
2023-01-28T12:14:21.507Z,17.4
2023-01-28T12:15:39.209Z,17.6
2023-01-28T12:16:51.702Z,18.8
2023-01-28T12:17:58.940Z,17
2023-01-28T12:19:14.351Z,19.6
2023-01-28T12:20:28.062Z,19.5
2023-01-28T12:21:35.503Z,17.6
2023-01-28T12:22:51.045Z,19.9
2023-01-28T12:24:04.325Z,18.6
2023-01-28T12:25:16.851Z,16.3
2023-01-28T12:26:28.504Z,16.3
2023-01-28T12:27:46.671Z,15.7
2023-01-28T12:28:55.987Z,15.5
2023-01-28T12:30:07.077Z,16.7
2023-01-28T12:31:21.424Z,17
2023-01-28T12:32:33.947Z,16.8
2023-01-28T12:33:49.206Z,16.4
2023-01-28T12:34:56.500Z,15.7
2023-01-28T12:36:03.743Z,15.3
2023-01-28T12:37:21.396Z,15.8
2023-01-28T12:38:39.279Z,16.2
2023-01-28T12:39:46.480Z,16.7
2023-01-28T12:40:59.222Z,16.8
2023-01-28T12:42:08.056Z,14.9
2023-01-28T12:43:25.442Z,15.6
2023-01-28T12:44:43.799Z,15.8
2023-01-28T12:45:51.052Z,14.9
2023-01-28T12:47:03.408Z,15.8
2023-01-28T12:48:12.695Z,15.6
2023-01-28T12:49:22.894Z,15.3
2023-01-28T12:50:36.702Z,15.4
2023-01-28T12:51:48.987Z,15.2
2023-01-28T12:53:06.348Z,15.3
2023-01-28T12:54:21.514Z,16.5
2023-01-28T12:55:29.956Z,17.3
2023-01-28T12:56:47.909Z,16.7
2023-01-28T12:57:57.715Z,15.7
2023-01-28T12:59:05.967Z,16.6
2023-01-28T13:00:16.358Z,17.4
2023-01-28T13:01:28.185Z,17.9
2023-01-28T13:02:39.202Z,18.2
2023-01-28T13:03:47.680Z,19.1
2023-01-28T13:04:57.860Z,17.7
2023-01-28T13:06:13.069Z,16.8
2023-01-28T13:07:31.800Z,14.2
2023-01-28T13:08:42.259Z,14.8
2023-01-28T13:09:49.998Z,14.1
2023-01-28T13:10:57.284Z,13.4
2023-01-28T13:12:04.693Z,13.8
2023-01-28T13:13:12.425Z,14.4
2023-01-28T13:14:26.493Z,13.9
2023-01-28T13:15:34.620Z,14.6
2023-01-28T13:16:42.460Z,14.8
2023-01-28T13:17:51.344Z,14
2023-01-28T13:19:06.513Z,14
2023-01-28T13:20:22.994Z,14
2023-01-28T13:21:49.028Z,16.4
2023-01-28T13:22:48.971Z,16.4
2023-01-28T13:23:57.213Z,15.1
2023-01-28T13:25:10.208Z,15
2023-01-28T13:26:24.817Z,14.6
2023-01-28T13:27:43.594Z,14.6
2023-01-28T13:28:58.613Z,15.4
2023-01-28T13:30:11.588Z,15
2023-01-28T13:31:27.897Z,14.5
2023-01-28T13:32:35.098Z,13.7
2023-01-28T13:33:42.987Z,14.2
2023-01-28T13:34:59.117Z,14.6
2023-01-28T13:36:07.003Z,15.6
2023-01-28T13:37:23.989Z,15.4
2023-01-28T13:38:39.002Z,14.5
2023-01-28T13:39:46.372Z,14.3
2023-01-28T13:40:55.930Z,14.9
2023-01-28T13:42:06.301Z,16
2023-01-28T13:43:25.312Z,16.5
2023-01-28T13:44:37.731Z,16.1
2023-01-28T13:45:46.309Z,16.6
2023-01-28T13:46:58.505Z,16.6
2023-01-28T13:48:09.104Z,16.6
2023-01-28T13:49:17.081Z,16.4
2023-01-28T13:50:27.286Z,16.5
2023-01-28T13:51:43.288Z,16.3
2023-01-28T13:52:56.617Z,16.3
2023-01-28T13:54:13.965Z,17.7
2023-01-28T13:55:37.326Z,16.5
2023-01-28T13:56:29.708Z,16.7
2023-01-28T13:57:47.344Z,17.3
2023-01-28T13:59:06.032Z,18.2
2023-01-28T14:00:26.472Z,18.6
2023-01-28T14:01:42.786Z,16.7
2023-01-28T14:03:02.102Z,17.9
2023-01-28T14:04:20.420Z,18.4
2023-01-28T14:05:32.803Z,18.5
2023-01-28T14:06:45.390Z,19.9
2023-01-28T14:08:04.521Z,19.2
2023-01-28T14:09:22.071Z,17.3
2023-01-28T14:10:39.748Z,18
2023-01-28T14:11:58.120Z,18.4
2023-01-28T14:13:13.813Z,17.8
2023-01-28T14:14:25.994Z,16.2
2023-01-28T14:15:44.059Z,17.7
2023-01-28T14:16:59.428Z,18.6
2023-01-28T14:18:16.977Z,19.4
2023-01-28T14:19:32.087Z,18.1
2023-01-28T14:20:39.644Z,21.2
2023-01-28T14:21:47.229Z,23
2023-01-28T14:22:54.621Z,21
2023-01-28T14:24:05.054Z,21.1
2023-01-28T14:25:14.310Z,22.2
2023-01-28T14:26:24.529Z,22
2023-01-28T14:27:41.777Z,24
2023-01-28T14:28:50.333Z,26.2
2023-01-28T14:30:06.313Z,26.2
2023-01-28T14:31:23.611Z,28.3
2023-01-28T14:32:30.852Z,28.5
2023-01-28T14:33:38.756Z,28.8
2023-01-28T14:34:47.260Z,31.6
2023-01-28T14:35:54.226Z,29
2023-01-28T14:37:01.336Z,26.8
2023-01-28T14:38:08.659Z,26.4
2023-01-28T14:39:18.786Z,25.5
2023-01-28T14:40:33.200Z,24.7
2023-01-28T14:41:40.536Z,23.8
2023-01-28T14:42:47.861Z,23.1
2023-01-28T14:43:56.488Z,23.4
2023-01-28T14:45:03.652Z,25.1
2023-01-28T14:46:21.605Z,27.6
2023-01-28T14:47:39.138Z,26.9
2023-01-28T14:48:57.133Z,28.7
2023-01-28T14:50:11.142Z,24.9
2023-01-28T14:51:23.166Z,23.7
2023-01-28T14:52:37.945Z,23.8
2023-01-28T14:53:53.489Z,23.9
2023-01-28T14:55:03.563Z,22
2023-01-28T14:56:15.927Z,21.5
2023-01-28T14:57:31.567Z,22.4
2023-01-28T14:58:43.741Z,23
2023-01-28T14:59:53.468Z,22.8
2023-01-28T15:01:03.195Z,23.3
2023-01-28T15:02:11.233Z,23.2
2023-01-28T15:03:25.755Z,23.2
2023-01-28T15:04:28.968Z,24.3
2023-01-28T15:05:37.312Z,23.9
2023-01-28T15:06:44.347Z,23.2
2023-01-28T15:07:51.397Z,24
2023-01-28T15:08:59.306Z,24.4
2023-01-28T15:10:10.070Z,26.7
2023-01-28T15:11:17.559Z,27.8
2023-01-28T15:12:28.109Z,26.8
2023-01-28T15:13:37.746Z,28
2023-01-28T15:14:48.930Z,28
2023-01-28T15:15:54.684Z,28
2023-01-28T15:17:01.833Z,30.6
2023-01-28T15:18:09.310Z,27.7
2023-01-28T15:19:18.008Z,29.4
2023-01-28T15:20:31.291Z,27.4
2023-01-28T15:21:39.408Z,25.6
2023-01-28T15:22:47.550Z,23.9
2023-01-28T15:23:54.757Z,23.3
2023-01-28T15:25:01.889Z,23.1
2023-01-28T15:26:10.353Z,22
2023-01-28T15:27:17.530Z,24.7
2023-01-28T15:28:32.523Z,26
2023-01-28T15:29:40.672Z,25.8
2023-01-28T15:30:49.650Z,26.4
2023-01-28T15:31:57.233Z,26.8
2023-01-28T15:33:05.557Z,25.7